tititudorancea.com
Station Historical Data
Daily Summary for February 12, 2018 Units:  Metric    English   Both
« Previous Day
Next Day »
Daily Weekly Monthly Yearly Custom
  High: Low: Average:
Temperature: -17.8 °C 9.5 °C 16.2 °C
Dew Point: -17.8 °C 7.1 °C 8.5 °C
Humidity: Humidity % 36 % 63 %
Wind Speed: 0 km/h 0 km/h 7.6 km/h
Wind Gust: 0 km/h - -
Wind:- - SW
Pressure: 0 hPa 1008.4 hPa -
Precipitation: 0 mm    
Historical Graphs
 
 
Ararat weather Find more about Weather in Ararat, AU


 



 


Tabular Data for February 12, 2018
Time Temperature Dew Point Pressure Wind Wind Speed Wind Gust Humidity Rainfall Rate (Hourly)
-17.8 °C -17.8 °C 0 hPa Calm     Humidity % 0 mm
00:01 13.6 °C 8.2 °C 1009.4 hPa SSW 4.8 km/h 11.3 km/h 70 % 0 mm
00:06 13.5 °C 8.1 °C 1009 hPa North 6.3 km/h 9.3 km/h 70 % 0 mm
00:11 13.4 °C 8 °C 1009 hPa SSW 7.1 km/h 9.7 km/h 70 % 0 mm
00:16 13.3 °C 8.1 °C 1009 hPa SSW 11.6 km/h 13 km/h 71 % 0 mm
00:21 13.2 °C 8.1 °C 1009 hPa SSW 8.2 km/h 14.8 km/h 71 % 0 mm
00:26 13.1 °C 7.9 °C 1009 hPa SSW 8.7 km/h 13 km/h 71 % 0 mm
00:31 13.1 °C 8.1 °C 1009 hPa SSW 10.3 km/h 11.1 km/h 72 % 0 mm
00:36 13 °C 8.1 °C 1009 hPa North 8 km/h 9.7 km/h 72 % 0 mm
00:41 13 °C 8.1 °C 1009.4 hPa SSW 6.1 km/h 9.3 km/h 72 % 0 mm
00:46 12.9 °C 8 °C 1009.4 hPa SSW 6.3 km/h 9.3 km/h 72 % 0 mm
00:51 12.8 °C 7.9 °C 1009.4 hPa SSW 5.8 km/h 6.4 km/h 72 % 0 mm
00:56 12.7 °C 8 °C 1009 hPa North 6.6 km/h 11.1 km/h 73 % 0 mm
01:01 12.6 °C 7.9 °C 1009 hPa SSW 2.9 km/h 5.6 km/h 73 % 0 mm
01:06 12.5 °C 7.8 °C 1009 hPa SSW 2.4 km/h 5.6 km/h 73 % 0 mm
01:11 12.4 °C 7.9 °C 1009 hPa SSW 3.7 km/h 7.4 km/h 74 % 0 mm
01:16 12.3 °C 7.8 °C 1009 hPa SSW 7.1 km/h 9.3 km/h 74 % 0 mm
01:21 12.3 °C 7.9 °C 1009 hPa SSW 5.3 km/h 9.3 km/h 75 % 0 mm
01:26 12.2 °C 7.9 °C 1009 hPa SSW 8 km/h 9.3 km/h 75 % 0 mm
01:31 12.3 °C 7.9 °C 1008.7 hPa SSW 5.3 km/h 7.4 km/h 75 % 0 mm
01:36 12.2 °C 7.9 °C 1008.7 hPa North 6.1 km/h 7.4 km/h 75 % 0 mm
01:41 12.2 °C 7.9 °C 1008.7 hPa SSW 3.9 km/h 7.4 km/h 75 % 0 mm
01:46 12.2 °C 8.1 °C 1008.7 hPa SSW 6.6 km/h 7.4 km/h 76 % 0 mm
01:51 12.1 °C 8 °C 1008.7 hPa SSW 5.5 km/h 6.4 km/h 76 % 0 mm
01:56 12 °C 7.9 °C 1008.7 hPa North 5.8 km/h 7.4 km/h 76 % 0 mm
02:01 11.9 °C 8.1 °C 1008.4 hPa North 5.6 km/h 9.3 km/h 77 % 0 mm
02:06 11.9 °C 8.1 °C 1008.4 hPa SSW 5.5 km/h 6.4 km/h 77 % 0 mm
02:11 12 °C 8.3 °C 1008.4 hPa SSW 3.9 km/h 5.6 km/h 78 % 0 mm
02:16 12 °C 8.3 °C 1008.7 hPa SSW 3.4 km/h 6.4 km/h 78 % 0 mm
02:21 12 °C 8.3 °C 1008.4 hPa SSW 1.6 km/h 5.6 km/h 78 % 0 mm
02:26 11.9 °C 8.2 °C 1008.4 hPa SSW 0.8 km/h 3.7 km/h 78 % 0 mm
02:31 11.8 °C 8.1 °C 1008.4 hPa SSW 2.7 km/h 3.7 km/h 78 % 0 mm
02:36 11.7 °C 8.2 °C 1008.4 hPa SSW 2.3 km/h 5.6 km/h 79 % 0 mm
02:41 11.6 °C 7.9 °C 1008.4 hPa North 2.9 km/h 5.6 km/h 78 % 0 mm
02:46 11.4 °C 7.9 °C 1008.4 hPa SSW 2.9 km/h 5.6 km/h 79 % 0 mm
02:51 11.2 °C 7.9 °C 1008.4 hPa SSW 3.5 km/h 5.6 km/h 80 % 0 mm
02:53 11.2 °C 7.9 °C 1008.4 hPa SSW 3.4 km/h 5.6 km/h 80 % 0 mm
02:58 11.1 °C 7.8 °C 1008.4 hPa SSW 3.5 km/h 5.6 km/h 80 % 0 mm
03:03 11 °C 7.9 °C 1008.4 hPa SSW 2.9 km/h 3.7 km/h 81 % 0 mm
03:08 10.9 °C 8 °C 1008.4 hPa North 2.1 km/h 5.6 km/h 82 % 0 mm
03:13 10.9 °C 8 °C 1008.4 hPa Calm   1.9 km/h 82 % 0 mm
03:18 11.1 °C 8.1 °C 1008.4 hPa SSW 2.3 km/h 5.6 km/h 82 % 0 mm
03:23 11.1 °C 8.1 °C 1008.4 hPa SSW 4.8 km/h 5.6 km/h 82 % 0 mm
03:28 11.1 °C 8.2 °C 1008.4 hPa SSW 2.9 km/h 6.4 km/h 82 % 0 mm
03:33 11.1 °C 8.1 °C 1008.4 hPa SSW 3.2 km/h 3.7 km/h 82 % 0 mm
03:38 11.1 °C 8.1 °C 1008.4 hPa North 4.7 km/h 5.6 km/h 82 % 0 mm
03:43 11.1 °C 8.1 °C 1008.4 hPa SSW 5.1 km/h 8 km/h 82 % 0 mm
03:48 11 °C 8.1 °C 1008.4 hPa SSW 2.4 km/h 5.6 km/h 82 % 0 mm
03:53 10.9 °C 8.2 °C 1008.4 hPa SSW 4.3 km/h 5.6 km/h 83 % 0 mm
03:58 10.9 °C 8.2 °C 1008.4 hPa SSW 7.7 km/h 9.3 km/h 83 % 0 mm
04:03 10.9 °C 8.2 °C 1008.4 hPa SSW 6.9 km/h 11.3 km/h 83 % 0 mm
04:08 11.1 °C 8.3 °C 1008.4 hPa SSW 7.6 km/h 11.1 km/h 83 % 0 mm
04:13 11.2 °C 8.3 °C 1008.4 hPa North 9.5 km/h 13 km/h 82 % 0 mm
04:18 11.4 °C 8.2 °C 1008.4 hPa SSW 8.7 km/h 13 km/h 81 % 0 mm
04:23 11.6 °C 8.2 °C 1008.4 hPa SSW 11.9 km/h 16.7 km/h 80 % 0 mm
04:28 11.8 °C 8.3 °C 1008.4 hPa SSW 6.4 km/h 9.3 km/h 79 % 0 mm
04:33 11.8 °C 8.3 °C 1008.4 hPa North 7.7 km/h 13 km/h 79 % 0 mm
04:38 11.7 °C 8.2 °C 1008.4 hPa SSW 6.6 km/h 8 km/h 79 % 0 mm
04:43 11.7 °C 8.2 °C 1008.4 hPa North 5.3 km/h 8 km/h 79 % 0 mm
04:48 11.7 °C 8.2 °C 1008.4 hPa SSW 7.7 km/h 7.7 km/h 79 % 0 mm
04:53 11.7 °C 7.9 °C 1008.4 hPa SSW 9.2 km/h 16.7 km/h 78 % 0 mm
04:58 11.7 °C 7.9 °C 1008.4 hPa North 5.6 km/h 9.3 km/h 78 % 0 mm
05:03 11.5 °C 7.8 °C 1008.4 hPa SSW 3.9 km/h 9.3 km/h 78 % 0 mm
05:08 11.2 °C 7.7 °C 1008.4 hPa SSW 2.6 km/h 5.6 km/h 79 % 0 mm
05:13 10.9 °C 7.6 °C 1008.4 hPa SSW 3.2 km/h 5.6 km/h 80 % 0 mm
05:18 10.6 °C 7.5 °C 1008.4 hPa SSW 4.2 km/h 5.6 km/h 81 % 0 mm
05:23 10.3 °C 7.4 °C 1008.4 hPa SSW 4.2 km/h 5.6 km/h 82 % 0 mm
05:28 10.1 °C 7.3 °C 1008.7 hPa North 3.2 km/h 5.6 km/h 83 % 0 mm
05:33 9.8 °C 7.1 °C 1008.7 hPa SSW 3.7 km/h 5.6 km/h 83 % 0 mm
05:38 9.6 °C 7.1 °C 1008.7 hPa SSW 4.2 km/h 5.6 km/h 84 % 0 mm
05:43 9.5 °C 7.1 °C 1008.7 hPa SSW 4.5 km/h 7.4 km/h 85 % 0 mm
05:48 9.5 °C 7.3 °C 1008.7 hPa SSW 0.2 km/h 3.7 km/h 86 % 0 mm
05:53 9.6 °C 7.5 °C 1008.7 hPa SSW 2.7 km/h 3.7 km/h 87 % 0 mm
05:58 9.6 °C 7.6 °C 1009 hPa North 3.1 km/h 3.7 km/h 87 % 0 mm
06:03 9.7 °C 7.7 °C 1009 hPa North 3.1 km/h 5.6 km/h 87 % 0 mm
06:08 9.8 °C 7.8 °C 1009 hPa SSW 3.1 km/h 5.6 km/h 87 % 0 mm
06:13 9.9 °C 7.9 °C 1009 hPa SSW 0.3 km/h 5.6 km/h 87 % 0 mm
06:18 10.1 °C 7.8 °C 1009 hPa North 2.7 km/h 3.7 km/h 86 % 0 mm
06:23 10.2 °C 7.9 °C 1009 hPa SSW 3.2 km/h 6.4 km/h 86 % 0 mm
06:28 10.2 °C 7.8 °C 1009 hPa SSW 0.6 km/h 5.6 km/h 85 % 0 mm
06:33 10.3 °C 7.9 °C 1009 hPa SSW 3.9 km/h 5.6 km/h 85 % 0 mm
06:38 10.4 °C 8 °C 1009 hPa North 2.7 km/h 3.7 km/h 85 % 0 mm
06:43 10.4 °C 7.8 °C 1009.4 hPa SSW 3.5 km/h 5.6 km/h 84 % 0 mm
06:48 10.5 °C 7.9 °C 1009.4 hPa North 0.5 km/h 3.7 km/h 84 % 0 mm
06:53 10.6 °C 7.9 °C 1009.4 hPa SSW 4.5 km/h 7.4 km/h 84 % 0 mm
06:58 10.6 °C 8 °C 1009.4 hPa SSW 2.6 km/h 3.7 km/h 84 % 0 mm
07:03 10.6 °C 7.8 °C 1009.7 hPa SSW 3.4 km/h 4.8 km/h 83 % 0 mm
07:08 10.7 °C 7.9 °C 1009.7 hPa Calm     83 % 0 mm
07:13 10.7 °C 7.9 °C 1009.7 hPa Calm     83 % 0 mm
07:18 10.7 °C 7.9 °C 1009.7 hPa North 0.2 km/h 1.9 km/h 83 % 0 mm
07:23 10.8 °C 8.1 °C 1009.7 hPa Calm     83 % 0 mm
07:25 10.9 °C 8.1 °C 1009.7 hPa Calm     83 % 0 mm
07:30 10.9 °C 8.2 °C 1009.7 hPa Calm     83 % 0 mm
07:35 11 °C 8.2 °C 1009.7 hPa Calm     83 % 0 mm
07:40 11.1 °C 8.1 °C 1010 hPa Calm     82 % 0 mm
07:45 11.1 °C 8.3 °C 1010 hPa Calm     83 % 0 mm
07:50 11.2 °C 8.3 °C 1010 hPa Calm     82 % 0 mm
07:55 11.4 °C 8.4 °C 1010 hPa Calm     82 % 0 mm
08:00 11.5 °C 8.6 °C 1010 hPa North 1.4 km/h 1.9 km/h 82 % 0 mm
08:05 11.7 °C 8.5 °C 1010.4 hPa SSW 1.8 km/h 3.7 km/h 81 % 0 mm
08:10 11.8 °C 8.6 °C 1010.4 hPa Calm     81 % 0 mm
08:15 11.9 °C 8.7 °C 1010.4 hPa Calm     81 % 0 mm
08:20 12 °C 8.7 °C 1010.4 hPa Calm     80 % 0 mm
08:25 12.2 °C 8.6 °C 1010.4 hPa SSW 1.4 km/h 3.7 km/h 79 % 0 mm
08:30 12.4 °C 8.7 °C 1010.4 hPa Calm     78 % 0 mm
08:35 12.7 °C 8.7 °C 1010.4 hPa North 1.6 km/h 5.6 km/h 77 % 0 mm
08:40 12.9 °C 8.8 °C 1010.4 hPa SSW 3.5 km/h 5.6 km/h 76 % 0 mm
08:45 13.2 °C 8.7 °C 1010.7 hPa SW 9 km/h 12.9 km/h 74 % 0 mm
08:50 13.5 °C 8.8 °C 1010.7 hPa SW 5.6 km/h 6.4 km/h 73 % 0 mm
08:55 13.8 °C 8.8 °C 1010.7 hPa SW 3.2 km/h 8 km/h 72 % 0 mm
09:00 14 °C 9.1 °C 1010.7 hPa SW 5.5 km/h 7.4 km/h 72 % 0 mm
09:05 14.2 °C 8.8 °C 1010.7 hPa SW 5.6 km/h 11.1 km/h 70 % 0 mm
09:10 14.4 °C 8.8 °C 1011.1 hPa SW 6.8 km/h 13 km/h 69 % 0 mm
09:15 14.6 °C 8.7 °C 1011.1 hPa SW 8 km/h 14.8 km/h 68 % 0 mm
09:20 14.7 °C 8.6 °C 1011.1 hPa SW 9.8 km/h 14.8 km/h 67 % 0 mm
09:25 14.8 °C 8.7 °C 1011.1 hPa North 15 km/h 18.5 km/h 67 % 0 mm
09:30 14.8 °C 8.8 °C 1011.4 hPa SW 14.3 km/h 20.4 km/h 67 % 0 mm
09:35 14.9 °C 8.9 °C 1011.4 hPa South 15.1 km/h 18.5 km/h 67 % 0 mm
09:40 15.1 °C 8.9 °C 1011.1 hPa South 9 km/h 13 km/h 67 % 0 mm
09:45 15.3 °C 8.9 °C 1011.1 hPa South 12.7 km/h 18.5 km/h 66 % 0 mm
09:50 15.2 °C 8.7 °C 1011.4 hPa SSW 9.5 km/h 18.5 km/h 65 % 0 mm
09:55 15.2 °C 8.7 °C 1011.4 hPa North 12.6 km/h 20.4 km/h 65 % 0 mm
10:00 15.4 °C 8.6 °C 1011.1 hPa SW 9.8 km/h 18.5 km/h 64 % 0 mm
10:05 15.6 °C 8.8 °C 1011.4 hPa South 11.4 km/h 16.7 km/h 64 % 0 mm
10:10 15.7 °C 8.9 °C 1011.4 hPa SSW 14 km/h 18.5 km/h 64 % 0 mm
10:15 15.7 °C 8.4 °C 1011.1 hPa SSW 7.2 km/h 11.3 km/h 62 % 0 mm
10:20 16 °C 8.7 °C 1011.4 hPa SSE 11.6 km/h 18.5 km/h 62 % 0 mm
10:25 16.3 °C 8.6 °C 1011.4 hPa SSW 6.4 km/h 18.5 km/h 60 % 0 mm
10:30 16.2 °C 8.4 °C 1011.4 hPa SSW 13.2 km/h 20.4 km/h 60 % 0 mm
10:35 16.4 °C 8.4 °C 1011.4 hPa SSE 14 km/h 18.5 km/h 59 % 0 mm
10:40 16.4 °C 8.4 °C 1011.4 hPa South 11.9 km/h 14.8 km/h 59 % 0 mm
10:45 16.7 °C 8.7 °C 1011.4 hPa South 4 km/h 11.1 km/h 59 % 0 mm
10:50 17.1 °C 8.7 °C 1011.4 hPa North 8.4 km/h 14.8 km/h 58 % 0 mm
10:55 17.4 °C 8.5 °C 1011.1 hPa SW 7.7 km/h 14.8 km/h 56 % 0 mm
11:00 17.8 °C 8.4 °C 1011.1 hPa SSE 11.7 km/h 20.4 km/h 54 % 0 mm
11:05 17.9 °C 8.2 °C 1011.1 hPa SSW 9.3 km/h 17.7 km/h 53 % 0 mm
11:10 17.3 °C 8.4 °C 1011.1 hPa SSW 11.7 km/h 18.5 km/h 56 % 0 mm
11:15 17.2 °C 8.6 °C 1011.4 hPa SSW 8.2 km/h 16.1 km/h 57 % 0 mm
11:20 17.1 °C 8.4 °C 1011.1 hPa SW 9.2 km/h 14.8 km/h 57 % 0 mm
11:25 17.4 °C 9.1 °C 1011.4 hPa SSW 15.9 km/h 22.2 km/h 58 % 0 mm
11:30 17.5 °C 8.6 °C 1011.1 hPa SSW 13.5 km/h 16.7 km/h 56 % 0 mm
11:35 17.9 °C 8.4 °C 1011.1 hPa SW 11.3 km/h 18.5 km/h 54 % 0 mm
11:40 18.3 °C 8.6 °C 1011.1 hPa South 15.1 km/h 18.5 km/h 53 % 0 mm
11:45 17.9 °C 8.5 °C 1011.1 hPa SSW 5.3 km/h 6.4 km/h 54 % 0 mm
11:50 18.4 °C 8.7 °C 1011.1 hPa SSW 10.9 km/h 18.5 km/h 53 % 0 mm
11:55 18.3 °C 8.2 °C 1011.4 hPa SW 13.5 km/h 18.5 km/h 52 % 0 mm
12:00 18.2 °C 8.5 °C 1011.4 hPa SW 13.7 km/h 17.7 km/h 53 % 0 mm
12:05 18.1 °C 8.7 °C 1011.4 hPa South 13.2 km/h 25.9 km/h 54 % 0 mm
12:10 18.5 °C 8.7 °C 1011.4 hPa SSW 10.8 km/h 14.8 km/h 53 % 0 mm
12:15 18.7 °C 8.6 °C 1011.1 hPa South 7.7 km/h 14.8 km/h 52 % 0 mm
12:20 18.6 °C 8.8 °C 1011.1 hPa SW 11.9 km/h 16.7 km/h 53 % 0 mm
12:25 18.4 °C 8.7 °C 1011.1 hPa South 13.8 km/h 17.7 km/h 53 % 0 mm
12:30 18.5 °C 8.7 °C 1011.1 hPa SSE 10.9 km/h 14.8 km/h 53 % 0 mm
12:35 18.4 °C 8.7 °C 1011.1 hPa SSW 9.7 km/h 11.3 km/h 53 % 0 mm
12:40 19 °C 8.6 °C 1011.1 hPa SW 14.5 km/h 16.7 km/h 51 % 0 mm
12:45 19.2 °C 8.8 °C 1011.1 hPa SSW 15.1 km/h 18.5 km/h 51 % 0 mm
12:50 19.1 °C 8.7 °C 1011.1 hPa SW 15.3 km/h 20.4 km/h 51 % 0 mm
12:55 18.7 °C 8.7 °C 1011.1 hPa South 9.8 km/h 18.5 km/h 52 % 0 mm
13:00 18.8 °C 8.4 °C 1011.1 hPa SW 17.5 km/h 27.8 km/h 51 % 0 mm
13:05 19 °C 8.3 °C 1011.1 hPa SW 12.4 km/h 14.8 km/h 50 % 0 mm
13:10 19.2 °C 8.8 °C 1011.1 hPa SSW 10.3 km/h 18.5 km/h 51 % 0 mm
13:15 19.4 °C 8.7 °C 1011.1 hPa South 9.8 km/h 14.5 km/h 50 % 0 mm
13:20 19.4 °C 8.7 °C 1010.7 hPa SSW 9.7 km/h 20.4 km/h 50 % 0 mm
13:25 19.8 °C 8.8 °C 1010.7 hPa SW 12.7 km/h 24.1 km/h 49 % 0 mm
13:30 20 °C 8.9 °C 1011.1 hPa WSW 19.8 km/h 25.9 km/h 49 % 0 mm
13:35 19.9 °C 9.2 °C 1011.1 hPa SSW 13.8 km/h 20.4 km/h 50 % 0 mm
13:40 19.7 °C 8.7 °C 1010.7 hPa North 19 km/h 25.9 km/h 49 % 0 mm
13:45 19.9 °C 9.2 °C 1010.7 hPa SSW 7.2 km/h 9.3 km/h 50 % 0 mm
13:50 20.6 °C 8.8 °C 1010.7 hPa SSW 13.5 km/h 20.9 km/h 47 % 0 mm
13:55 20.4 °C 8.7 °C 1010.7 hPa South 12.1 km/h 18.5 km/h 47 % 0 mm
14:00 20.7 °C 8.9 °C 1010.7 hPa SW 9.3 km/h 14.8 km/h 47 % 0 mm
14:05 20.4 °C 8.4 °C 1010.7 hPa SW 13.5 km/h 24.1 km/h 46 % 0 mm
14:10 20.7 °C 8.3 °C 1010.7 hPa SSE 9.8 km/h 18.5 km/h 45 % 0 mm
14:15 20.5 °C 8.5 °C 1010.7 hPa South 8.4 km/h 14.8 km/h 46 % 0 mm
14:20 20.7 °C 8.6 °C 1010.7 hPa SW 14.2 km/h 16.1 km/h 46 % 0 mm
14:25 21 °C 8.9 °C 1010.7 hPa SSW 18.3 km/h 27.4 km/h 46 % 0 mm
14:30 21 °C 8.9 °C 1010.4 hPa South 12.2 km/h 16.7 km/h 46 % 0 mm
14:35 20.8 °C 8.4 °C 1010.4 hPa SSW 17.5 km/h 25.9 km/h 45 % 0 mm
14:40 20.8 °C 8.4 °C 1010.4 hPa SW 7.7 km/h 16.7 km/h 45 % 0 mm
14:45 21.4 °C 9 °C 1010.4 hPa West 15 km/h 20.9 km/h 45 % 0 mm
14:50 22 °C 9.2 °C 1010.4 hPa South 11.7 km/h 17.7 km/h 44 % 0 mm
14:55 22 °C 8.8 °C 1010.4 hPa WSW 14 km/h 18.5 km/h 43 % 0 mm
15:00 21.9 °C 8.7 °C 1010.4 hPa South 11.7 km/h 14.8 km/h 43 % 0 mm
15:05 21.6 °C 8.8 °C 1010.4 hPa SW 3.7 km/h 11.1 km/h 44 % 0 mm
15:10 21.6 °C 8.8 °C 1010.4 hPa SSW 13.5 km/h 18.5 km/h 44 % 0 mm
15:15 21.3 °C 8.8 °C 1010.4 hPa South 10.3 km/h 18.5 km/h 45 % 0 mm
15:20 21.8 °C 9 °C 1010 hPa North 9.8 km/h 17.7 km/h 44 % 0 mm
15:25 22 °C 8.5 °C 1010 hPa SSW 13 km/h 17.7 km/h 42 % 0 mm
15:30 22.4 °C 8.8 °C 1010 hPa South 11.7 km/h 20.4 km/h 42 % 0 mm
15:35 22.3 °C 8.4 °C 1010 hPa SSE 5 km/h 14.8 km/h 41 % 0 mm
15:40 22 °C 8.1 °C 1010 hPa SSW 12.7 km/h 18.5 km/h 41 % 0 mm
15:45 22 °C 8.5 °C 1010 hPa South 10.6 km/h 11.1 km/h 42 % 0 mm
15:50 22.3 °C 8.4 °C 1010 hPa SW 16.7 km/h 25.9 km/h 41 % 0 mm
15:55 22.3 °C 8.4 °C 1010 hPa SW 10.3 km/h 18.5 km/h 41 % 0 mm
16:00 22.3 °C 8.4 °C 1010 hPa SW 7.2 km/h 13 km/h 41 % 0 mm
16:05 22.5 °C 8.2 °C 1010 hPa SW 14.8 km/h 25.9 km/h 40 % 0 mm
16:10 22.5 °C 8.2 °C 1009.7 hPa SSW 11.7 km/h 18.5 km/h 40 % 0 mm
16:15 22.7 °C 8.4 °C 1009.7 hPa South 9.2 km/h 16.1 km/h 40 % 0 mm
16:20 22.7 °C 8.1 °C 1009.7 hPa South 9.2 km/h 13 km/h 39 % 0 mm
16:25 22.8 °C 8.2 °C 1009.7 hPa SSW 12.4 km/h 18.5 km/h 39 % 0 mm
16:30 22.4 °C 7.7 °C 1009.7 hPa SSW 8.7 km/h 14.8 km/h 39 % 0 mm
16:35 22.1 °C 8.2 °C 1009.7 hPa SSW 5.8 km/h 9.7 km/h 41 % 0 mm
16:40 22.7 °C 8.4 °C 1009.7 hPa SE 10.3 km/h 18.5 km/h 40 % 0 mm
16:45 23.3 °C 8.2 °C 1009.7 hPa SE 7.1 km/h 18.5 km/h 38 % 0 mm
16:50 23.4 °C 8.3 °C 1009.7 hPa North 10.8 km/h 11.3 km/h 38 % 0 mm
16:55 22.7 °C 8.1 °C 1009.7 hPa South 5.3 km/h 13 km/h 39 % 0 mm
17:00 22.6 °C 7.9 °C 1009.7 hPa SSW 15.1 km/h 18.5 km/h 39 % 0 mm
17:05 23.1 °C 8.3 °C 1009.7 hPa South 7.4 km/h 13 km/h 39 % 0 mm
17:10 23.5 °C 7.9 °C 1009.7 hPa SSW 12.2 km/h 16.7 km/h 37 % 0 mm
17:15 23.1 °C 8 °C 1009.7 hPa South 3.4 km/h 9.3 km/h 38 % 0 mm
17:20 23.1 °C 8 °C 1009.7 hPa SSE 6.3 km/h 7.4 km/h 38 % 0 mm
17:25 23.6 °C 8 °C 1009.7 hPa SE 4.3 km/h 9.3 km/h 37 % 0 mm
17:30 23.6 °C 8.1 °C 1009.7 hPa SSW 8 km/h 14.8 km/h 37 % 0 mm
17:35 23.5 °C 7.6 °C 1009.7 hPa WSW 8.7 km/h 11.3 km/h 36 % 0 mm
17:40 23.7 °C 7.8 °C 1009.7 hPa WSW 14 km/h 20.4 km/h 36 % 0 mm
17:45 23.3 °C 7.4 °C 1009.7 hPa WSW 10 km/h 16.7 km/h 36 % 0 mm
17:50 23.1 °C 7.6 °C 1009.7 hPa WSW 7.6 km/h 7.6 km/h 37 % 0 mm
17:55 23.3 °C 7.8 °C 1009.7 hPa WSW 9 km/h 13 km/h 37 % 0 mm
18:00 23.5 °C 7.6 °C 1009.7 hPa SW 7.9 km/h 9.7 km/h 36 % 0 mm
18:05 23.6 °C 7.6 °C 1009.7 hPa SW 10.3 km/h 14.8 km/h 36 % 0 mm
18:10 22.9 °C 7.4 °C 1009.7 hPa SW 10.6 km/h 18.5 km/h 37 % 0 mm
18:16 22.6 °C 7.6 °C 1009.7 hPa SW 7.4 km/h 9.3 km/h 38 % 0 mm
18:21 22.4 °C 7.4 °C 1009.7 hPa SW 5.1 km/h 6.4 km/h 38 % 0 mm
18:26 22.5 °C 7.4 °C 1009.7 hPa SW 5.1 km/h 11.1 km/h 38 % 0 mm
18:31 22.6 °C 7.6 °C 1009.4 hPa SW 8.5 km/h 13 km/h 38 % 0 mm
18:36 22.8 °C 7.4 °C 1009.4 hPa North 5.6 km/h 9.7 km/h 37 % 0 mm
18:41 23.1 °C 7.2 °C 1009.4 hPa SSW 10.8 km/h 14.8 km/h 36 % 0 mm
18:46 23.2 °C 7.3 °C 1009.4 hPa SSW 9.7 km/h 13 km/h 36 % 0 mm
18:51 23.2 °C 7.3 °C 1009.4 hPa SW 5 km/h 7.4 km/h 36 % 0 mm
18:56 23.1 °C 7.2 °C 1009.4 hPa SSW 6.4 km/h 9.7 km/h 36 % 0 mm
19:01 23.2 °C 7.7 °C 1009.4 hPa SSW 6.9 km/h 12.9 km/h 37 % 0 mm
19:06 23.3 °C 7.4 °C 1009.4 hPa SSW 8.4 km/h 11.1 km/h 36 % 0 mm
19:11 23.2 °C 7.7 °C 1009.4 hPa SSW 5.6 km/h 11.1 km/h 37 % 0 mm
19:16 23.3 °C 7.8 °C 1009.4 hPa South 6.3 km/h 9.7 km/h 37 % 0 mm
19:21 22.9 °C 7.4 °C 1009.4 hPa South 7.6 km/h 11.1 km/h 37 % 0 mm
19:26 22.7 °C 7.7 °C 1009.7 hPa SW 14 km/h 16.7 km/h 38 % 0 mm
19:31 22.4 °C 7.8 °C 1009.7 hPa SSW 11.4 km/h 16.7 km/h 39 % 0 mm
19:36 22.2 °C 7.9 °C 1009.7 hPa SSW 6.3 km/h 9.3 km/h 40 % 0 mm
19:41 22.1 °C 7.8 °C 1009.7 hPa SSW 6.9 km/h 9.3 km/h 40 % 0 mm
19:46 22.1 °C 7.9 °C 1009.7 hPa SSW 10.1 km/h 13 km/h 40 % 0 mm
19:51 22.1 °C 8.2 °C 1009.7 hPa SSW 6 km/h 14.8 km/h 41 % 0 mm
19:56 22 °C 8.5 °C 1009.7 hPa SSW 6.3 km/h 11.1 km/h 42 % 0 mm
20:01 21.8 °C 8.7 °C 1009.7 hPa SSW 4.2 km/h 9.7 km/h 43 % 0 mm
20:06 21.6 °C 8.8 °C 1009.7 hPa SSW 12.1 km/h 14.8 km/h 44 % 0 mm
20:11 21.4 °C 8.7 °C 1009.7 hPa SSW 7.6 km/h 11.1 km/h 44 % 0 mm
20:16 21.2 °C 8.8 °C 1010 hPa North 7.7 km/h 14.8 km/h 45 % 0 mm
20:21 21.1 °C 9 °C 1010 hPa South 9.5 km/h 13 km/h 46 % 0 mm
20:26 20.8 °C 9.1 °C 1010 hPa South 7.4 km/h 11.1 km/h 47 % 0 mm
20:31 20.7 °C 8.9 °C 1010 hPa South 10.5 km/h 14.8 km/h 47 % 0 mm
20:36 20.5 °C 9.1 °C 1010 hPa South 9.8 km/h 13 km/h 48 % 0 mm
20:41 20.1 °C 9.9 °C 1010.4 hPa SSW 12.7 km/h 24.1 km/h 52 % 0 mm
20:46 19.4 °C 10.9 °C 1010.4 hPa SSW 16.7 km/h 20.4 km/h 58 % 0 mm
20:51 18.7 °C 11.1 °C 1010.7 hPa South 15.3 km/h 31.5 km/h 61 % 0 mm
20:56 18.3 °C 11.2 °C 1010.7 hPa SSW 20.8 km/h 27.8 km/h 63 % 0 mm
21:01 18 °C 11.3 °C 1010.7 hPa South 11.3 km/h 16.1 km/h 65 % 0 mm
21:06 17.8 °C 11.3 °C 1010.7 hPa South 10.9 km/h 13 km/h 66 % 0 mm
21:11 17.6 °C 11.3 °C 1010.7 hPa South 13.8 km/h 18.5 km/h 67 % 0 mm
21:16 17.4 °C 11.4 °C 1011.1 hPa South 12.1 km/h 18.5 km/h 68 % 0 mm
21:21 17.2 °C 11.2 °C 1011.1 hPa SSW 8.7 km/h 18.5 km/h 68 % 0 mm
21:26 17 °C 11.3 °C 1011.4 hPa South 10.8 km/h 16.7 km/h 69 % 0 mm
21:31 16.9 °C 11.4 °C 1011.4 hPa North 10.5 km/h 17.7 km/h 70 % 0 mm
21:36 16.7 °C 11.2 °C 1011.4 hPa North 8.5 km/h 11.1 km/h 70 % 0 mm
21:41 16.6 °C 11.3 °C 1011.4 hPa South 8.7 km/h 13 km/h 71 % 0 mm
21:46 16.5 °C 11.2 °C 1011.4 hPa South 11.9 km/h 14.8 km/h 71 % 0 mm
21:51 16.4 °C 11.3 °C 1011.7 hPa South 7.2 km/h 13 km/h 72 % 0 mm
21:56 16.2 °C 11.2 °C 1011.7 hPa South 6 km/h 7.4 km/h 72 % 0 mm
22:01 16.1 °C 11.1 °C 1011.7 hPa South 5 km/h 7.4 km/h 72 % 0 mm
22:06 16 °C 11.2 °C 1012.1 hPa South 4.5 km/h 7.4 km/h 73 % 0 mm
22:11 15.8 °C 11 °C 1012.1 hPa South 5.5 km/h 11.1 km/h 73 % 0 mm
22:16 15.8 °C 11.2 °C 1012.1 hPa South 6.1 km/h 11.1 km/h 74 % 0 mm
22:21 15.7 °C 11.1 °C 1012.1 hPa South 8.9 km/h 12.9 km/h 74 % 0 mm
22:26 15.5 °C 10.9 °C 1012.1 hPa South 7.6 km/h 11.1 km/h 74 % 0 mm
22:31 15.4 °C 10.8 °C 1012.1 hPa South 4.5 km/h 7.4 km/h 74 % 0 mm
22:36 15.3 °C 10.9 °C 1012.1 hPa South 7.7 km/h 12.9 km/h 75 % 0 mm
22:41 15.2 °C 10.8 °C 1012.1 hPa South 5.3 km/h 9.7 km/h 75 % 0 mm
22:46 15.2 °C 10.9 °C 1012.1 hPa North 7.4 km/h 11.3 km/h 76 % 0 mm
22:51 15.1 °C 10.9 °C 1012.1 hPa South 7.1 km/h 11.1 km/h 76 % 0 mm
22:56 15.1 °C 10.8 °C 1012.1 hPa South 7.6 km/h 11.1 km/h 76 % 0 mm
23:01 15 °C 10.8 °C 1012.1 hPa South 4.8 km/h 7.4 km/h 76 % 0 mm
23:07 14.8 °C 10.8 °C 1012.1 hPa North 8.7 km/h 13 km/h 77 % 0 mm
23:12 14.7 °C 10.7 °C 1012.1 hPa South 6.9 km/h 11.3 km/h 77 % 0 mm
23:17 14.6 °C 10.6 °C 1012.1 hPa South 7.6 km/h 11.1 km/h 77 % 0 mm
23:22 14.5 °C 10.7 °C 1012.1 hPa South 8.9 km/h 13 km/h 78 % 0 mm
23:27 14.4 °C 10.7 °C 1012.1 hPa South 8 km/h 13 km/h 78 % 0 mm
23:32 14.4 °C 10.6 °C 1012.1 hPa South 6.3 km/h 14.8 km/h 78 % 0 mm
23:37 14.3 °C 10.6 °C 1012.1 hPa North 7.4 km/h 13 km/h 78 % 0 mm
23:42 14.3 °C 10.5 °C 1012.1 hPa South 5.1 km/h 11.1 km/h 78 % 0 mm
23:47 14.2 °C 10.6 °C 1012.1 hPa South 10.1 km/h 11.3 km/h 79 % 0 mm
23:52 14.2 °C 10.6 °C 1012.1 hPa South 3.7 km/h 9.3 km/h 79 % 0 mm
23:57 14.2 °C 10.6 °C 1012.1 hPa North 3.1 km/h 11.1 km/h 79 % 0 mm
Ararat Weather
Compliments of Weather Underground - 2 mb
Click here to send mail.


ABOUT

Live weather data from Ararat, Victoria, Australia, 3377
Data uploaded from Cumulus every 5 minutes to Weather Underground.
This site then downloads the raw data for formatting and display.
Metric and imperial data can be displayed. Graphs and historical data available.
Includes Sun and Moon times and rain image live from BOM.

Check out Ararat Weather on Facebook, Twitter and Google +

Help support ongoing costs by checking out the ads





Follow @AraratWeather